createdAt,value
2018-12-21T00:00:47.395Z,81.56
2018-12-21T00:03:16.177Z,81.35
2018-12-21T00:05:45.100Z,81.66
2018-12-21T00:08:13.904Z,81.71
2018-12-21T00:10:42.763Z,81.70
2018-12-21T00:13:11.815Z,81.76
2018-12-21T00:15:40.923Z,81.71
2018-12-21T00:18:09.845Z,81.63
2018-12-21T00:20:38.786Z,81.25
2018-12-21T00:23:07.596Z,81.63
2018-12-21T00:25:36.451Z,81.50
2018-12-21T00:28:05.308Z,81.22
2018-12-21T00:30:33.244Z,81.36
2018-12-21T00:33:07.543Z,80.89
2018-12-21T00:35:41.384Z,81.14
2018-12-21T00:38:18.389Z,80.53
2018-12-21T00:40:52.165Z,80.68
2018-12-21T00:43:35.651Z,80.87
2018-12-21T00:46:13.725Z,80.64
2018-12-21T00:48:42.705Z,80.80
2018-12-21T00:51:11.536Z,80.91
2018-12-21T00:53:41.093Z,80.97
2018-12-21T00:56:10.140Z,80.50
2018-12-21T00:58:38.802Z,80.57
2018-12-21T01:01:07.693Z,80.82
2018-12-21T01:03:36.584Z,81.12
2018-12-21T01:06:05.452Z,81.03
2018-12-21T01:08:34.112Z,80.75
2018-12-21T01:11:02.976Z,81.13
2018-12-21T01:13:31.824Z,80.90
2018-12-21T01:16:00.475Z,80.77
2018-12-21T01:18:29.287Z,80.59
2018-12-21T01:20:58.179Z,81.01
2018-12-21T01:23:27.079Z,80.58
2018-12-21T01:25:55.995Z,80.26
2018-12-21T01:28:24.839Z,80.55
2018-12-21T01:30:53.613Z,80.70
2018-12-21T01:33:22.559Z,80.88
2018-12-21T01:35:51.327Z,81.05
2018-12-21T01:38:20.003Z,81.26
2018-12-21T01:40:48.834Z,81.31
2018-12-21T01:43:17.528Z,81.15
2018-12-21T01:45:46.354Z,80.94
2018-12-21T01:48:15.125Z,80.82
2018-12-21T01:50:43.917Z,81.14
2018-12-21T01:53:12.628Z,81.18
2018-12-21T01:55:41.411Z,81.36
2018-12-21T01:58:11.424Z,80.97
2018-12-21T02:00:41.262Z,80.89
2018-12-21T02:03:10.076Z,80.77
2018-12-21T02:05:38.760Z,80.64
2018-12-21T02:08:07.486Z,80.58
2018-12-21T02:10:36.271Z,80.75
2018-12-21T02:13:04.962Z,80.79
2018-12-21T02:15:33.654Z,80.99
2018-12-21T02:18:02.495Z,80.81
2018-12-21T02:20:31.472Z,80.89
2018-12-21T02:23:00.150Z,80.62
2018-12-21T02:25:28.974Z,80.93
2018-12-21T02:27:57.679Z,81.07
2018-12-21T02:30:26.421Z,81.16
2018-12-21T02:32:55.337Z,81.91
2018-12-21T02:35:24.023Z,81.89
2018-12-21T02:37:52.685Z,82.37
2018-12-21T02:40:21.492Z,81.93
2018-12-21T02:42:50.180Z,82.41
2018-12-21T02:45:18.893Z,82.22
2018-12-21T02:47:47.607Z,81.68
2018-12-21T02:50:16.321Z,81.94
2018-12-21T02:52:44.978Z,81.57
2018-12-21T02:55:13.719Z,82.07
2018-12-21T02:57:42.352Z,81.97
2018-12-21T03:00:11.573Z,82.38
2018-12-21T03:02:41.360Z,82.36
2018-12-21T03:05:10.094Z,82.10
2018-12-21T03:07:38.781Z,81.94
2018-12-21T03:10:08.346Z,81.71
2018-12-21T03:12:37.051Z,82.20
2018-12-21T03:15:06.593Z,82.23
2018-12-21T03:17:35.458Z,81.88
2018-12-21T03:20:04.381Z,82.40
2018-12-21T03:22:33.020Z,82.08
2018-12-21T03:25:01.960Z,82.14
2018-12-21T03:27:30.636Z,81.96
2018-12-21T03:29:59.377Z,81.58
2018-12-21T03:32:28.223Z,81.74
2018-12-21T03:34:56.914Z,81.66
2018-12-21T03:37:25.695Z,81.60
2018-12-21T03:39:54.483Z,81.60
2018-12-21T03:42:23.192Z,81.72
2018-12-21T03:44:51.901Z,82.14
2018-12-21T03:47:20.761Z,82.03
2018-12-21T03:49:49.434Z,82.37
2018-12-21T03:52:24.125Z,82.61
2018-12-21T03:54:48.867Z,82.36
2018-12-21T03:57:17.550Z,82.46
2018-12-21T03:59:46.249Z,82.37
2018-12-21T04:02:15.377Z,82.44
2018-12-21T04:04:44.036Z,82.55
2018-12-21T04:07:12.791Z,82.89
2018-12-21T04:09:41.553Z,82.66
2018-12-21T04:12:11.295Z,83.06
2018-12-21T04:14:40.079Z,83.12
2018-12-21T04:17:08.940Z,82.97
2018-12-21T04:19:37.725Z,82.70
2018-12-21T04:22:06.541Z,82.80
2018-12-21T04:24:35.461Z,82.68
2018-12-21T04:27:04.221Z,82.32
2018-12-21T04:29:33.043Z,82.41
2018-12-21T04:32:01.930Z,82.42
2018-12-21T04:34:30.716Z,82.20
2018-12-21T04:36:59.426Z,82.75
2018-12-21T04:39:28.289Z,82.73
2018-12-21T04:41:56.971Z,82.65
2018-12-21T04:44:25.709Z,82.71
2018-12-21T04:46:54.631Z,82.87
2018-12-21T04:49:23.316Z,82.91
2018-12-21T04:51:51.997Z,82.98
2018-12-21T04:54:20.686Z,82.84
2018-12-21T04:56:49.346Z,83.05
2018-12-21T04:59:17.977Z,82.50
2018-12-21T05:01:46.778Z,82.47
2018-12-21T05:04:20.224Z,82.74
2018-12-21T05:06:46.166Z,82.69
2018-12-21T05:09:15.905Z,82.42
2018-12-21T05:11:44.611Z,82.22
2018-12-21T05:14:13.331Z,82.37
2018-12-21T05:16:42.271Z,82.44
2018-12-21T05:19:11.346Z,82.23
2018-12-21T05:21:40.156Z,82.18
2018-12-21T05:24:09.099Z,81.84
2018-12-21T05:26:37.797Z,82.21
2018-12-21T05:29:06.549Z,82.30
2018-12-21T05:31:35.289Z,81.73
2018-12-21T05:34:04.013Z,81.73
2018-12-21T05:36:32.792Z,81.31
2018-12-21T05:39:01.553Z,81.17
2018-12-21T05:41:30.627Z,81.11
2018-12-21T05:43:59.334Z,80.94
2018-12-21T05:46:28.206Z,81.42
2018-12-21T05:48:57.014Z,81.43
2018-12-21T05:51:25.804Z,81.54
2018-12-21T05:53:54.715Z,81.56
2018-12-21T05:56:23.486Z,81.87
2018-12-21T05:58:52.254Z,81.77
2018-12-21T06:01:21.083Z,81.78
2018-12-21T06:03:49.844Z,81.97
2018-12-21T06:06:18.600Z,82.23
2018-12-21T06:08:47.645Z,81.90
2018-12-21T06:11:16.402Z,81.92
2018-12-21T06:13:45.193Z,81.96
2018-12-21T06:16:14.092Z,81.70
2018-12-21T06:18:42.776Z,82.05
2018-12-21T06:21:11.465Z,81.96
2018-12-21T06:23:40.273Z,82.19
2018-12-21T06:26:09.064Z,82.08
2018-12-21T06:28:37.742Z,81.86
2018-12-21T06:31:06.597Z,82.13
2018-12-21T06:33:35.303Z,81.71
2018-12-21T06:36:03.968Z,81.85
2018-12-21T06:38:32.831Z,81.76
2018-12-21T06:41:01.468Z,81.53
2018-12-21T06:43:30.299Z,81.55
2018-12-21T06:45:59.434Z,81.48
2018-12-21T06:48:28.244Z,81.45
2018-12-21T06:50:56.972Z,81.72
2018-12-21T06:53:25.827Z,81.86
2018-12-21T06:55:54.558Z,81.65
2018-12-21T06:58:23.398Z,81.59
2018-12-21T07:00:52.364Z,81.78
2018-12-21T07:03:21.182Z,81.41
2018-12-21T07:05:49.976Z,81.75
2018-12-21T07:08:18.763Z,81.12
2018-12-21T07:10:47.547Z,81.58
2018-12-21T07:13:16.322Z,81.13
2018-12-21T07:15:45.272Z,81.12
2018-12-21T07:18:13.958Z,81.15
2018-12-21T07:20:42.667Z,80.52
2018-12-21T07:23:11.495Z,80.71
2018-12-21T07:25:40.217Z,80.98
2018-12-21T07:28:08.982Z,81.18
2018-12-21T07:30:37.858Z,80.95
2018-12-21T07:33:06.563Z,80.56
2018-12-21T07:35:35.280Z,80.62
2018-12-21T07:38:04.136Z,81.13
2018-12-21T07:40:32.794Z,80.73
2018-12-21T07:43:01.532Z,80.66
2018-12-21T07:45:30.386Z,80.39
2018-12-21T07:47:59.104Z,80.57
2018-12-21T07:50:27.818Z,80.87
2018-12-21T07:52:56.634Z,80.87
2018-12-21T07:55:25.448Z,80.42
2018-12-21T07:57:54.132Z,81.00
2018-12-21T08:00:23.762Z,81.50
2018-12-21T08:02:52.544Z,81.03
2018-12-21T08:05:21.301Z,81.33
2018-12-21T08:07:50.072Z,81.42
2018-12-21T08:10:20.286Z,81.33
2018-12-21T08:12:48.972Z,81.14
2018-12-21T08:15:17.864Z,81.06
2018-12-21T08:17:46.548Z,80.71
2018-12-21T08:20:15.230Z,80.66
2018-12-21T08:22:44.049Z,80.85
2018-12-21T08:25:12.795Z,81.36
2018-12-21T08:27:41.664Z,80.99
2018-12-21T08:30:11.103Z,81.14
2018-12-21T08:32:39.894Z,81.00
2018-12-21T08:35:08.734Z,81.33
2018-12-21T08:37:37.504Z,81.29
2018-12-21T08:40:08.517Z,81.33
2018-12-21T08:42:37.401Z,81.47
2018-12-21T08:45:08.880Z,81.60
2018-12-21T08:47:37.847Z,81.36
2018-12-21T08:50:09.527Z,81.60
2018-12-21T08:52:38.228Z,81.47
2018-12-21T08:55:07.720Z,81.23
2018-12-21T08:57:36.876Z,81.28
2018-12-21T09:00:07.996Z,81.48
2018-12-21T09:02:36.684Z,81.41
2018-12-21T09:05:05.715Z,81.07
2018-12-21T09:07:34.497Z,80.99
2018-12-21T09:10:03.292Z,81.49
2018-12-21T09:12:32.071Z,81.73
2018-12-21T09:15:00.932Z,81.43
2018-12-21T09:17:29.843Z,81.34
2018-12-21T09:19:58.742Z,81.09
2018-12-21T09:22:27.437Z,81.10
2018-12-21T09:24:56.184Z,80.71
2018-12-21T09:27:25.107Z,80.18
2018-12-21T09:29:53.888Z,80.62
2018-12-21T09:32:22.740Z,80.83
2018-12-21T09:34:51.556Z,80.65
2018-12-21T09:37:20.253Z,80.25
2018-12-21T09:39:48.940Z,79.90
2018-12-21T09:42:17.795Z,80.09
2018-12-21T09:44:52.424Z,79.45
2018-12-21T09:47:17.708Z,79.33
2018-12-21T09:49:46.755Z,79.53
2018-12-21T09:52:15.672Z,79.39
2018-12-21T09:54:44.380Z,80.06
2018-12-21T09:57:13.168Z,79.43
2018-12-21T09:59:41.826Z,79.76
2018-12-21T10:02:10.489Z,79.45
2018-12-21T10:04:39.281Z,79.04
2018-12-21T10:07:07.959Z,79.68
2018-12-21T10:09:36.603Z,79.26
2018-12-21T10:12:05.344Z,79.59
2018-12-21T10:14:34.073Z,79.61
2018-12-21T10:17:02.792Z,79.81
2018-12-21T10:19:31.869Z,79.55
2018-12-21T10:22:00.604Z,79.60
2018-12-21T10:24:29.378Z,79.58
2018-12-21T10:26:58.274Z,79.25
2018-12-21T10:29:27.068Z,79.74
2018-12-21T10:31:55.851Z,79.66
2018-12-21T10:34:25.628Z,79.72
2018-12-21T10:36:54.317Z,79.71
2018-12-21T10:39:23.401Z,79.97
2018-12-21T10:41:52.143Z,79.88
2018-12-21T10:44:20.797Z,79.82
2018-12-21T10:46:49.502Z,80.03
2018-12-21T10:49:18.243Z,79.61
2018-12-21T10:51:46.965Z,79.66
2018-12-21T10:54:15.818Z,79.63
2018-12-21T10:56:44.630Z,80.32
2018-12-21T10:59:20.937Z,80.22
2018-12-21T11:01:44.047Z,80.47
2018-12-21T11:04:13.038Z,80.45
2018-12-21T11:06:41.808Z,80.92
2018-12-21T11:09:10.467Z,80.68
2018-12-21T11:11:39.243Z,81.20
2018-12-21T11:14:07.928Z,80.89
2018-12-21T11:16:36.735Z,81.34
2018-12-21T11:19:05.492Z,81.27
2018-12-21T11:21:34.156Z,81.54
2018-12-21T11:24:02.846Z,81.54
2018-12-21T11:26:31.652Z,81.83
2018-12-21T11:29:00.372Z,81.69
2018-12-21T11:31:29.299Z,82.05
2018-12-21T11:33:58.248Z,82.24
2018-12-21T11:36:27.001Z,82.46
2018-12-21T11:38:55.668Z,82.85
2018-12-21T11:41:24.489Z,83.16
2018-12-21T11:43:53.201Z,83.29
2018-12-21T11:46:21.883Z,83.55
2018-12-21T11:48:51.007Z,83.41
2018-12-21T11:51:19.691Z,83.35
2018-12-21T11:53:48.516Z,83.44
2018-12-21T11:56:17.304Z,83.93
2018-12-21T11:58:45.987Z,84.01
2018-12-21T12:01:14.675Z,84.14
2018-12-21T12:03:43.514Z,84.46
2018-12-21T12:06:12.150Z,84.00
2018-12-21T12:08:42.047Z,83.85
2018-12-21T12:11:10.778Z,83.62
2018-12-21T12:13:39.461Z,83.97
2018-12-21T12:16:08.149Z,84.13
2018-12-21T12:18:36.886Z,84.08
2018-12-21T12:21:05.619Z,84.03
2018-12-21T12:23:34.289Z,84.25
2018-12-21T12:26:03.101Z,84.44
2018-12-21T12:28:31.861Z,84.35
2018-12-21T12:31:00.604Z,84.17
2018-12-21T12:33:29.307Z,84.87
2018-12-21T12:35:57.973Z,84.90
2018-12-21T12:38:26.636Z,84.95
2018-12-21T12:40:55.694Z,85.30
2018-12-21T12:43:24.585Z,85.44
2018-12-21T12:45:53.312Z,85.45
2018-12-21T12:48:22.205Z,85.32
2018-12-21T12:50:50.912Z,85.14
2018-12-21T12:53:19.627Z,85.38
2018-12-21T12:55:48.771Z,86.17
2018-12-21T12:58:17.502Z,86.09
2018-12-21T13:00:46.148Z,86.19
2018-12-21T13:03:15.290Z,86.33
2018-12-21T13:05:44.107Z,86.14
2018-12-21T13:08:12.873Z,86.33
2018-12-21T13:10:41.959Z,86.16
2018-12-21T13:13:11.273Z,86.04
2018-12-21T13:15:40.096Z,86.35
2018-12-21T13:18:08.870Z,86.16
2018-12-21T13:20:37.722Z,85.54
2018-12-21T13:23:06.441Z,85.46
2018-12-21T13:25:35.211Z,85.62
2018-12-21T13:28:04.064Z,85.83
2018-12-21T13:30:32.889Z,85.76
2018-12-21T13:33:01.600Z,85.96
2018-12-21T13:35:30.247Z,85.99
2018-12-21T13:37:58.987Z,86.26
2018-12-21T13:40:28.145Z,86.09
2018-12-21T13:42:56.961Z,86.10
2018-12-21T13:45:25.823Z,85.96
2018-12-21T13:47:54.815Z,86.44
2018-12-21T13:50:23.700Z,86.83
2018-12-21T13:52:52.471Z,86.51
2018-12-21T13:55:21.688Z,86.08
2018-12-21T13:57:50.510Z,86.40
2018-12-21T14:00:19.168Z,86.60
2018-12-21T14:02:47.968Z,86.63
2018-12-21T14:05:16.645Z,86.39
2018-12-21T14:07:45.280Z,86.73
2018-12-21T14:10:14.119Z,86.57
2018-12-21T14:12:42.917Z,86.21
2018-12-21T14:15:12.037Z,85.87
2018-12-21T14:17:40.792Z,86.13
2018-12-21T14:20:11.685Z,86.13
2018-12-21T14:22:40.392Z,86.57
2018-12-21T14:25:09.788Z,86.59
2018-12-21T14:27:38.536Z,86.23
2018-12-21T14:30:08.841Z,86.48
2018-12-21T14:32:37.655Z,86.17
2018-12-21T14:35:07.432Z,86.94
2018-12-21T14:37:37.002Z,86.74
2018-12-21T14:40:06.292Z,87.15
2018-12-21T14:42:35.186Z,87.09
2018-12-21T14:45:04.179Z,86.78
2018-12-21T14:47:33.155Z,86.87
2018-12-21T14:50:02.114Z,86.89
2018-12-21T14:52:31.248Z,87.28
2018-12-21T14:55:00.473Z,86.92
2018-12-21T14:57:29.178Z,87.39
2018-12-21T14:59:59.275Z,87.46
2018-12-21T15:02:28.124Z,87.52
2018-12-21T15:04:57.089Z,87.25
2018-12-21T15:07:26.983Z,87.84
2018-12-21T15:09:55.721Z,87.71
2018-12-21T15:12:24.400Z,88.28
2018-12-21T15:14:53.204Z,87.93
2018-12-21T15:17:23.373Z,88.24
2018-12-21T15:19:52.475Z,87.58
2018-12-21T15:22:21.170Z,87.80
2018-12-21T15:24:50.043Z,87.65
2018-12-21T15:27:18.736Z,87.40
2018-12-21T15:29:47.451Z,88.21
2018-12-21T15:32:16.228Z,88.20
2018-12-21T15:34:44.887Z,88.66
2018-12-21T15:37:13.593Z,88.94
2018-12-21T15:39:42.491Z,89.09
2018-12-21T15:42:12.091Z,88.93
2018-12-21T15:44:40.801Z,88.67
2018-12-21T15:47:09.611Z,89.04
2018-12-21T15:49:38.281Z,88.66
2018-12-21T15:52:06.915Z,88.54
2018-12-21T15:54:35.645Z,88.60
2018-12-21T15:57:04.470Z,89.07
2018-12-21T15:59:33.162Z,88.97
2018-12-21T16:02:02.212Z,89.34
2018-12-21T16:04:30.884Z,89.04
2018-12-21T16:06:59.577Z,89.36
2018-12-21T16:09:28.292Z,88.80
2018-12-21T16:11:56.977Z,88.45
2018-12-21T16:14:34.042Z,88.43
2018-12-21T16:16:56.677Z,88.71
2018-12-21T16:19:25.325Z,88.37
2018-12-21T16:21:53.989Z,88.40
2018-12-21T16:24:22.803Z,87.82
2018-12-21T16:26:51.520Z,87.72
2018-12-21T16:29:20.169Z,87.81
2018-12-21T16:31:48.855Z,87.77
2018-12-21T16:34:17.499Z,87.97
2018-12-21T16:36:46.192Z,88.60
2018-12-21T16:39:15.075Z,88.29
2018-12-21T16:41:43.770Z,88.49
2018-12-21T16:44:12.472Z,88.24
2018-12-21T16:46:42.284Z,88.63
2018-12-21T16:49:10.951Z,89.24
2018-12-21T16:51:39.681Z,89.20
2018-12-21T16:54:08.539Z,88.81
2018-12-21T16:56:37.200Z,89.06
2018-12-21T16:59:05.911Z,89.17
2018-12-21T17:01:34.733Z,88.93
2018-12-21T17:04:03.567Z,88.58
2018-12-21T17:06:32.256Z,88.25
2018-12-21T17:09:01.086Z,88.54
2018-12-21T17:11:29.789Z,88.37
2018-12-21T17:13:58.544Z,88.41
2018-12-21T17:16:27.404Z,88.80
2018-12-21T17:18:56.143Z,89.27
2018-12-21T17:21:25.841Z,89.35
2018-12-21T17:23:54.680Z,89.34
2018-12-21T17:26:23.468Z,90.45
2018-12-21T17:28:52.212Z,90.65
2018-12-21T17:31:21.060Z,90.80
2018-12-21T17:33:49.887Z,91.46
2018-12-21T17:36:18.697Z,91.43
2018-12-21T17:38:47.491Z,91.63
2018-12-21T17:41:16.236Z,91.81
2018-12-21T17:43:44.933Z,92.23
2018-12-21T17:46:13.660Z,92.00
2018-12-21T17:48:42.393Z,91.79
2018-12-21T17:51:11.083Z,91.82
2018-12-21T17:53:39.814Z,91.49
2018-12-21T17:56:08.581Z,91.21
2018-12-21T17:58:37.271Z,91.38
2018-12-21T18:01:07.082Z,91.01
2018-12-21T18:03:46.699Z,91.31
2018-12-21T18:06:15.552Z,91.16
2018-12-21T18:08:44.272Z,90.94
2018-12-21T18:11:13.136Z,90.88
2018-12-21T18:13:42.436Z,90.54
2018-12-21T18:16:11.214Z,90.65
2018-12-21T18:18:40.038Z,90.90
2018-12-21T18:21:08.885Z,90.70
2018-12-21T18:23:38.576Z,90.91
2018-12-21T18:26:07.295Z,90.51
2018-12-21T18:28:36.189Z,90.19
2018-12-21T18:31:42.842Z,90.17
2018-12-21T18:34:16.332Z,89.23
2018-12-21T18:36:45.052Z,89.32
2018-12-21T18:39:13.757Z,88.71
2018-12-21T18:41:42.588Z,88.41
2018-12-21T18:44:12.236Z,87.83
2018-12-21T18:46:41.069Z,88.41
2018-12-21T18:49:09.940Z,87.83
2018-12-21T18:51:38.675Z,88.64
2018-12-21T18:54:07.350Z,87.74
2018-12-21T18:56:47.168Z,87.43
2018-12-21T18:59:12.338Z,86.79
2018-12-21T19:01:41.000Z,86.38
2018-12-21T19:04:09.805Z,86.17
2018-12-21T19:06:38.954Z,85.45
2018-12-21T19:09:07.692Z,85.94
2018-12-21T19:11:36.434Z,85.87
2018-12-21T19:14:05.187Z,85.55
2018-12-21T19:16:33.971Z,85.61
2018-12-21T19:19:03.108Z,85.96
2018-12-21T19:21:32.167Z,84.67
2018-12-21T19:24:00.959Z,84.87
2018-12-21T19:26:30.093Z,83.63
2018-12-21T19:28:58.863Z,83.21
2018-12-21T19:31:27.728Z,83.31
2018-12-21T19:33:56.597Z,82.96
2018-12-21T19:36:25.715Z,82.85
2018-12-21T19:38:54.374Z,82.78
2018-12-21T19:41:23.358Z,83.42
2018-12-21T19:43:52.153Z,83.24
2018-12-21T19:46:20.934Z,83.58
2018-12-21T19:48:49.758Z,83.14
2018-12-21T19:51:18.615Z,83.33
2018-12-21T19:53:48.270Z,82.86
2018-12-21T19:57:24.939Z,82.67
2018-12-21T19:59:53.705Z,82.62
2018-12-21T20:02:22.464Z,82.41
2018-12-21T20:04:51.423Z,82.27
2018-12-21T20:07:20.221Z,81.76
2018-12-21T20:09:49.032Z,81.08
2018-12-21T20:12:17.988Z,81.03
2018-12-21T20:14:47.178Z,80.92
2018-12-21T20:17:15.990Z,80.56
2018-12-21T20:19:44.874Z,80.15
2018-12-21T20:22:13.651Z,80.27
2018-12-21T20:24:42.579Z,81.28
2018-12-21T20:27:14.189Z,82.44
2018-12-21T20:29:43.397Z,82.24
2018-12-21T20:32:12.516Z,82.59
2018-12-21T20:34:41.497Z,82.12
2018-12-21T20:37:10.258Z,81.32
2018-12-21T20:39:42.191Z,81.09
2018-12-21T20:42:11.005Z,80.89
2018-12-21T20:44:39.797Z,81.02
2018-12-21T20:47:08.794Z,81.14
2018-12-21T20:49:37.608Z,80.89
2018-12-21T20:52:06.366Z,80.75
2018-12-21T20:54:35.332Z,81.16
2018-12-21T20:57:05.552Z,81.45
2018-12-21T20:59:34.379Z,81.56
2018-12-21T21:02:03.284Z,82.42
2018-12-21T21:04:32.126Z,82.96
2018-12-21T21:07:00.801Z,83.73
2018-12-21T21:09:29.826Z,84.32
2018-12-21T21:11:58.631Z,84.38
2018-12-21T21:14:27.416Z,84.70
2018-12-21T21:16:56.334Z,85.38
2018-12-21T21:19:26.904Z,85.31
2018-12-21T21:21:55.602Z,84.93
2018-12-21T21:24:26.703Z,85.54
2018-12-21T21:26:55.222Z,85.50
2018-12-21T21:29:23.985Z,85.63
2018-12-21T21:31:52.873Z,85.49
2018-12-21T21:34:21.791Z,85.71
2018-12-21T21:36:50.456Z,85.58
2018-12-21T21:39:19.443Z,85.29
2018-12-21T21:41:48.118Z,85.35
2018-12-21T21:44:18.411Z,85.44
2018-12-21T21:46:47.479Z,85.51
2018-12-21T21:49:16.247Z,85.70
2018-12-21T21:51:44.879Z,85.73
2018-12-21T21:54:13.916Z,85.48
2018-12-21T21:56:42.668Z,85.86
2018-12-21T21:59:12.320Z,85.63
2018-12-21T22:01:41.466Z,86.12
2018-12-21T22:04:10.100Z,86.24
2018-12-21T22:06:38.808Z,86.35
2018-12-21T22:09:08.108Z,86.91
2018-12-21T22:11:36.964Z,85.92
2018-12-21T22:14:05.644Z,85.63
2018-12-21T22:16:34.472Z,85.37
2018-12-21T22:19:03.136Z,85.53
2018-12-21T22:21:31.999Z,84.86
2018-12-21T22:24:00.873Z,84.94
2018-12-21T22:26:29.591Z,84.99
2018-12-21T22:28:58.616Z,84.54
2018-12-21T22:31:27.689Z,84.86
2018-12-21T22:33:56.362Z,84.21
2018-12-21T22:36:25.220Z,83.14
2018-12-21T22:38:53.975Z,82.52
2018-12-21T22:41:22.768Z,81.54
2018-12-21T22:43:51.507Z,81.63
2018-12-21T22:46:20.395Z,81.26
2018-12-21T22:48:49.075Z,80.81
2018-12-21T22:51:17.812Z,80.51
2018-12-21T22:53:46.656Z,80.22
2018-12-21T22:56:15.317Z,79.86
2018-12-21T22:58:47.253Z,79.20
2018-12-21T23:01:16.068Z,78.94
2018-12-21T23:03:44.716Z,78.86
2018-12-21T23:06:13.405Z,78.91
2018-12-21T23:08:42.618Z,78.37
2018-12-21T23:11:11.284Z,78.03
2018-12-21T23:13:40.220Z,78.40
2018-12-21T23:16:09.021Z,78.47
2018-12-21T23:18:37.657Z,79.01
2018-12-21T23:21:06.495Z,78.49
2018-12-21T23:23:35.202Z,78.82
2018-12-21T23:26:03.991Z,78.74
2018-12-21T23:28:32.799Z,78.95
2018-12-21T23:31:01.437Z,78.86
2018-12-21T23:33:30.066Z,78.74
2018-12-21T23:35:58.783Z,78.42
2018-12-21T23:38:27.549Z,78.40
2018-12-21T23:40:56.204Z,78.68
2018-12-21T23:43:25.093Z,79.45
2018-12-21T23:45:53.731Z,79.62
2018-12-21T23:48:22.489Z,80.55
2018-12-21T23:50:51.319Z,80.65
2018-12-21T23:53:19.997Z,81.49
2018-12-21T23:55:48.633Z,80.73
2018-12-21T23:58:17.344Z,80.78
